Louis, Missouri
Current Conditions -  °F | °C
As of 7:53 AM on Monday 20 Oct 2014 (Local Time) from KCPS Reporting Station
Overcast Overcast  
Wind Chill: 57°   Ceiling: 7000
Heat Index: 57°   Visibility: 10mi
Dew Point: 49°   Wind: 7mph
Humidity: 74%   Direction: 240°WSW
Pressure: 29.97"   Gusts: NA
Location:  38.6578°N, 90.2474°W
Report Text: KCPS 201253Z 24006KT 10SM OVC070 14/09 A2997 RMK AO2 SLP148 T01390094
Loading
Personal Weather Stations






























Interactive Weather Map
Tropical Storm Tracking
New forecast layout! Learn more

10-Day Weather Forecast

Advertisements
Track Severe Weather on mobile